createdAt,value
2023-03-02T00:02:24.241Z,47.90
2023-03-02T00:04:59.471Z,51.90
2023-03-02T00:07:37.767Z,49.50
2023-03-02T00:10:12.181Z,48.75
2023-03-02T00:12:45.665Z,49.80
2023-03-02T00:15:20.555Z,47.17
2023-03-02T00:17:54.013Z,44.95
2023-03-02T00:20:27.688Z,49.85
2023-03-02T00:23:01.202Z,44.83
2023-03-02T00:25:34.665Z,54.83
2023-03-02T00:28:08.109Z,47.28
2023-03-02T00:30:42.938Z,47.70
2023-03-02T00:33:16.550Z,42.08
2023-03-02T00:35:50.104Z,49.88
2023-03-02T00:38:23.632Z,50.03
2023-03-02T00:40:57.301Z,46.38
2023-03-02T00:43:30.765Z,42.08
2023-03-02T00:46:11.928Z,43.08
2023-03-02T00:48:45.924Z,46.80
2023-03-02T00:51:20.247Z,46.35
2023-03-02T00:53:53.686Z,45.40
2023-03-02T00:56:27.222Z,45.80
2023-03-02T00:59:05.133Z,45.80
2023-03-02T01:01:40.349Z,45.20
2023-03-02T01:04:13.935Z,45.03
2023-03-02T01:06:47.856Z,43.47
2023-03-02T01:09:21.291Z,51.10
2023-03-02T01:11:55.413Z,53.90
2023-03-02T01:14:29.201Z,50.85
2023-03-02T01:17:04.154Z,50.35
2023-03-02T01:19:37.803Z,53.20
2023-03-02T01:22:12.217Z,50.97
2023-03-02T01:24:45.776Z,45.08
2023-03-02T01:27:19.224Z,45.25
2023-03-02T01:29:52.682Z,40.55
2023-03-02T01:32:28.077Z,38.80
2023-03-02T01:35:01.569Z,43.95
2023-03-02T01:37:35.061Z,40.85
2023-03-02T01:40:10.215Z,40.25
2023-03-02T01:42:52.787Z,40.88
2023-03-02T01:45:54.924Z,43.50
2023-03-02T01:48:47.758Z,41.60
2023-03-02T01:51:27.525Z,40.70
2023-03-02T01:54:08.615Z,43.08
2023-03-02T01:56:42.661Z,40.92
2023-03-02T01:59:19.852Z,35.42
2023-03-02T02:01:56.349Z,37.33
2023-03-02T02:04:33.454Z,37.55
2023-03-02T02:07:09.087Z,37.35
2023-03-02T02:09:46.907Z,36.72
2023-03-02T02:12:22.730Z,39.17
2023-03-02T02:15:00.681Z,35.55
2023-03-02T02:17:34.271Z,33.65
2023-03-02T02:20:20.649Z,33.50
2023-03-02T02:23:03.744Z,33.03
2023-03-02T02:25:58.404Z,29.08
2023-03-02T02:28:36.943Z,32.50
2023-03-02T02:31:15.254Z,34.25
2023-03-02T02:33:53.245Z,31.67
2023-03-02T02:36:33.534Z,32.67
2023-03-02T02:39:20.162Z,29.45
2023-03-02T02:41:59.731Z,30.88
2023-03-02T02:44:35.080Z,30.80
2023-03-02T02:47:18.423Z,29.33
2023-03-02T02:49:54.727Z,31.85
2023-03-02T02:52:30.196Z,30.90
2023-03-02T02:55:04.023Z,29.90
2023-03-02T02:57:39.232Z,25.67
2023-03-02T03:00:20.535Z,27.63
2023-03-02T03:02:59.854Z,29.15
2023-03-02T03:05:33.656Z,28.55
2023-03-02T03:08:09.491Z,27.90
2023-03-02T03:10:45.528Z,29.38
2023-03-02T03:13:20.867Z,28.02
2023-03-02T03:15:54.550Z,28.40
2023-03-02T03:18:28.005Z,28.85
2023-03-02T03:21:01.671Z,26.17
2023-03-02T03:23:38.530Z,29.13
2023-03-02T03:26:13.870Z,29.00
2023-03-02T03:28:48.769Z,25.58
2023-03-02T03:31:22.338Z,27.42
2023-03-02T03:33:56.898Z,27.98
2023-03-02T03:36:32.382Z,27.38
2023-03-02T03:39:07.840Z,27.42
2023-03-02T03:41:41.638Z,28.25
2023-03-02T03:44:17.153Z,25.17
2023-03-02T03:46:51.595Z,27.70
2023-03-02T03:49:25.317Z,26.33
2023-03-02T03:51:58.897Z,26.15
2023-03-02T03:54:32.832Z,27.58
2023-03-02T03:57:06.381Z,24.88
2023-03-02T03:59:41.336Z,25.98
2023-03-02T04:02:14.836Z,28.52
2023-03-02T04:04:49.520Z,27.05
2023-03-02T04:07:25.008Z,27.27
2023-03-02T04:10:03.903Z,27.15
2023-03-02T04:12:43.366Z,28.10
2023-03-02T04:15:19.238Z,27.88
2023-03-02T04:17:54.674Z,23.02
2023-03-02T04:20:30.576Z,24.48
2023-03-02T04:23:04.090Z,24.35
2023-03-02T04:25:37.691Z,23.83
2023-03-02T04:28:18.861Z,22.85
2023-03-02T04:30:54.114Z,23.70
2023-03-02T04:33:27.830Z,22.30
2023-03-02T04:36:01.759Z,21.38
2023-03-02T04:38:35.885Z,23.20
2023-03-02T04:41:09.349Z,21.27
2023-03-02T04:43:42.803Z,22.05
2023-03-02T04:46:20.931Z,20.05
2023-03-02T04:48:55.048Z,23.00
2023-03-02T04:51:30.700Z,22.73
2023-03-02T04:54:06.287Z,22.02
2023-03-02T04:56:39.669Z,20.45
2023-03-02T04:59:13.111Z,22.15
2023-03-02T05:01:48.949Z,22.50
2023-03-02T05:04:22.453Z,22.15
2023-03-02T05:06:56.051Z,21.75
2023-03-02T05:09:30.927Z,19.35
2023-03-02T05:12:04.470Z,21.60
2023-03-02T05:14:37.918Z,21.13
2023-03-02T05:17:12.765Z,22.75
2023-03-02T05:19:46.307Z,22.42
2023-03-02T05:22:19.748Z,22.67
2023-03-02T05:24:53.194Z,21.83
2023-03-02T05:27:26.753Z,23.27
2023-03-02T05:30:00.297Z,20.45
2023-03-02T05:32:35.201Z,22.05
2023-03-02T05:35:09.298Z,19.60
2023-03-02T05:37:44.781Z,21.77
2023-03-02T05:40:20.764Z,20.67
2023-03-02T05:42:54.272Z,20.98
2023-03-02T05:45:30.239Z,21.17
2023-03-02T05:48:05.948Z,20.48
2023-03-02T05:50:39.519Z,20.48
2023-03-02T05:53:13.004Z,22.90
2023-03-02T05:55:46.440Z,21.23
2023-03-02T05:58:20.951Z,20.45
2023-03-02T06:00:54.467Z,19.73
2023-03-02T06:03:29.687Z,22.60
2023-03-02T06:06:03.228Z,20.33
2023-03-02T06:08:41.003Z,23.33
2023-03-02T06:11:14.548Z,20.60
2023-03-02T06:13:48.049Z,21.10
2023-03-02T06:16:21.564Z,21.60
2023-03-02T06:18:56.444Z,24.33
2023-03-02T06:21:29.955Z,25.92
2023-03-02T06:24:03.429Z,24.08
2023-03-02T06:26:36.883Z,23.55
2023-03-02T06:29:10.561Z,25.10
2023-03-02T06:31:43.985Z,24.58
2023-03-02T06:34:18.879Z,27.52
2023-03-02T06:36:52.402Z,28.63
2023-03-02T06:39:25.830Z,27.30
2023-03-02T06:42:00.278Z,28.52
2023-03-02T06:44:33.761Z,29.63
2023-03-02T06:47:07.200Z,26.48
2023-03-02T06:49:42.045Z,26.52
2023-03-02T06:52:15.585Z,28.13
2023-03-02T06:54:49.191Z,28.80
2023-03-02T06:57:22.679Z,25.60
2023-03-02T06:59:56.084Z,28.25
2023-03-02T07:02:29.524Z,31.00
2023-03-02T07:05:04.607Z,27.77
2023-03-02T07:07:38.115Z,25.45
2023-03-02T07:10:13.462Z,30.40
2023-03-02T07:12:46.900Z,27.05
2023-03-02T07:15:20.860Z,44.20
2023-03-02T07:17:54.306Z,34.88
2023-03-02T07:20:29.181Z,26.17
2023-03-02T07:23:02.793Z,26.80
2023-03-02T07:25:37.088Z,22.23
2023-03-02T07:28:10.554Z,23.73
2023-03-02T07:30:44.236Z,22.65
2023-03-02T07:33:17.769Z,24.10
2023-03-02T07:35:52.682Z,22.88
2023-03-02T07:38:26.232Z,23.63
2023-03-02T07:40:59.712Z,22.27
2023-03-02T07:43:35.633Z,21.70
2023-03-02T07:46:09.146Z,20.85
2023-03-02T07:48:42.645Z,19.33
2023-03-02T07:51:17.464Z,19.20
2023-03-02T07:53:50.890Z,20.73
2023-03-02T07:56:24.452Z,21.92
2023-03-02T07:58:57.896Z,17.33
2023-03-02T08:01:31.812Z,15.82
2023-03-02T08:04:05.908Z,15.82
2023-03-02T08:06:42.525Z,15.00
2023-03-02T08:09:16.997Z,19.20
2023-03-02T08:11:50.613Z,16.30
2023-03-02T08:14:24.111Z,16.25
2023-03-02T08:16:57.621Z,15.02
2023-03-02T08:19:31.139Z,13.77
2023-03-02T08:22:06.006Z,13.35
2023-03-02T08:24:41.546Z,13.05
2023-03-02T08:27:16.298Z,12.35
2023-03-02T08:29:49.820Z,12.60
2023-03-02T08:32:23.304Z,13.68
2023-03-02T08:34:56.813Z,11.98
2023-03-02T08:37:31.745Z,11.20
2023-03-02T08:40:06.031Z,12.65
2023-03-02T08:42:39.498Z,10.43
2023-03-02T08:45:13.243Z,11.50
2023-03-02T08:47:46.880Z,10.02
2023-03-02T08:50:20.364Z,10.57
2023-03-02T08:52:55.282Z,11.73
2023-03-02T08:55:28.905Z,9.48
2023-03-02T08:58:02.352Z,9.75
2023-03-02T09:00:35.842Z,12.23
2023-03-02T09:03:09.300Z,9.73
2023-03-02T09:05:42.898Z,9.68
2023-03-02T09:08:17.734Z,9.38
2023-03-02T09:10:51.351Z,8.18
2023-03-02T09:13:24.829Z,8.98
2023-03-02T09:15:58.494Z,7.68
2023-03-02T09:18:32.367Z,9.43
2023-03-02T09:21:06.446Z,8.55
2023-03-02T09:23:41.345Z,8.55
2023-03-02T09:26:15.121Z,6.90
2023-03-02T09:28:49.504Z,7.70
2023-03-02T09:31:23.461Z,8.63
2023-03-02T09:33:58.159Z,8.38
2023-03-02T09:36:32.777Z,9.80
2023-03-02T09:39:12.351Z,7.68
2023-03-02T09:42:13.729Z,7.75
2023-03-02T09:45:27.053Z,6.70
2023-03-02T09:50:44.284Z,5.60
2023-03-02T09:53:40.537Z,4.95
2023-03-02T09:56:18.945Z,4.07
2023-03-02T09:58:57.710Z,4.05
2023-03-02T10:01:40.396Z,3.10
2023-03-02T10:04:23.720Z,4.65
2023-03-02T10:07:00.842Z,3.47
2023-03-02T10:09:34.359Z,2.40
2023-03-02T10:12:27.544Z,1.95
2023-03-02T10:15:07.124Z,2.33
2023-03-02T10:17:51.951Z,2.58
2023-03-02T10:20:34.640Z,2.50
2023-03-02T10:23:24.258Z,3.17
2023-03-02T10:26:07.221Z,2.88
2023-03-02T10:31:25.852Z,2.00
2023-03-02T10:36:38.984Z,1.75
2023-03-02T10:39:15.760Z,2.08
2023-03-02T10:41:53.212Z,3.00
2023-03-02T10:44:32.960Z,2.83
2023-03-02T10:47:07.668Z,2.70
2023-03-02T10:49:44.229Z,2.60
2023-03-02T10:52:19.738Z,2.08
2023-03-02T10:55:04.125Z,2.00
2023-03-02T10:57:39.573Z,2.40
2023-03-02T11:00:19.790Z,2.22
2023-03-02T11:02:55.163Z,2.78
2023-03-02T11:05:32.242Z,2.42
2023-03-02T11:08:07.943Z,2.38
2023-03-02T11:10:51.687Z,2.40
2023-03-02T11:13:28.559Z,2.25
2023-03-02T11:16:05.370Z,2.40
2023-03-02T11:18:41.338Z,2.53
2023-03-02T11:21:19.838Z,2.22
2023-03-02T11:24:01.198Z,2.33
2023-03-02T11:26:39.883Z,1.80
2023-03-02T11:29:22.736Z,2.22
2023-03-02T11:32:02.587Z,2.25
2023-03-02T11:34:41.820Z,2.03
2023-03-02T11:37:19.379Z,2.28
2023-03-02T11:40:16.452Z,1.73
2023-03-02T11:42:51.269Z,1.42
2023-03-02T11:45:27.455Z,1.42
2023-03-02T11:48:08.525Z,2.15
2023-03-02T11:50:52.177Z,1.60
2023-03-02T11:53:31.768Z,2.05
2023-03-02T11:56:05.769Z,1.70
2023-03-02T11:58:39.695Z,1.55
2023-03-02T12:01:19.262Z,1.83
2023-03-02T12:03:55.093Z,1.95
2023-03-02T12:06:37.639Z,1.52
2023-03-02T12:09:34.438Z,2.05
2023-03-02T12:12:37.075Z,1.45
2023-03-02T12:15:27.874Z,1.50
2023-03-02T12:18:01.448Z,1.35
2023-03-02T12:20:37.499Z,1.75
2023-03-02T12:23:22.343Z,1.25
2023-03-02T12:26:06.386Z,1.58
2023-03-02T12:28:41.509Z,1.30
2023-03-02T12:31:15.279Z,1.30
2023-03-02T12:33:50.913Z,1.00
2023-03-02T12:36:30.726Z,1.52
2023-03-02T12:39:26.849Z,1.17
2023-03-02T12:42:21.531Z,1.30
2023-03-02T12:45:04.572Z,1.20
2023-03-02T12:47:42.536Z,1.52
2023-03-02T12:50:23.282Z,1.38
2023-03-02T12:53:02.839Z,1.80
2023-03-02T12:55:39.220Z,1.45
2023-03-02T12:58:19.382Z,1.60
2023-03-02T13:00:55.494Z,1.85
2023-03-02T13:03:30.822Z,1.50
2023-03-02T13:06:06.195Z,1.88
2023-03-02T13:08:43.779Z,1.38
2023-03-02T13:11:26.934Z,2.10
2023-03-02T13:14:03.714Z,1.85
2023-03-02T13:16:37.629Z,1.95
2023-03-02T13:19:16.623Z,2.78
2023-03-02T13:21:50.531Z,1.92
2023-03-02T13:24:33.653Z,1.55
2023-03-02T13:27:09.345Z,1.58
2023-03-02T13:29:42.837Z,1.90
2023-03-02T13:32:21.914Z,1.95
2023-03-02T13:34:57.271Z,2.08
2023-03-02T13:37:39.231Z,1.27
2023-03-02T13:40:39.181Z,2.30
2023-03-02T13:43:32.543Z,1.55
2023-03-02T13:46:08.204Z,1.58
2023-03-02T13:48:41.758Z,1.75
2023-03-02T13:51:18.376Z,1.98
2023-03-02T13:53:56.104Z,1.70
2023-03-02T13:56:34.359Z,2.20
2023-03-02T13:59:13.678Z,2.22
2023-03-02T14:01:47.260Z,2.20
2023-03-02T14:04:24.062Z,3.15
2023-03-02T14:06:57.610Z,3.00
2023-03-02T14:09:31.056Z,2.88
2023-03-02T14:12:07.747Z,3.22
2023-03-02T14:14:44.422Z,3.78
2023-03-02T14:17:22.881Z,3.60
2023-03-02T14:19:56.532Z,3.95
2023-03-02T14:22:30.296Z,4.40
2023-03-02T14:25:03.846Z,4.65
2023-03-02T14:27:39.973Z,4.55
2023-03-02T14:30:17.078Z,4.93
2023-03-02T14:32:51.196Z,7.22
2023-03-02T14:35:26.236Z,5.18
2023-03-02T14:38:00.212Z,14.27
2023-03-02T14:40:33.693Z,7.97
2023-03-02T14:43:09.853Z,6.22
2023-03-02T14:45:43.413Z,4.82
2023-03-02T14:48:17.091Z,6.10
2023-03-02T14:50:51.417Z,5.40
2023-03-02T14:53:29.461Z,6.93
2023-03-02T14:56:03.270Z,5.43
2023-03-02T14:58:38.564Z,6.10
2023-03-02T15:01:13.379Z,5.53
2023-03-02T15:03:47.322Z,5.38
2023-03-02T15:06:27.852Z,6.40
2023-03-02T15:09:02.516Z,5.70
2023-03-02T15:11:36.316Z,5.85
2023-03-02T15:14:11.383Z,5.97
2023-03-02T15:16:45.370Z,6.25
2023-03-02T15:19:19.338Z,6.80
2023-03-02T15:21:53.001Z,5.97
2023-03-02T15:24:27.126Z,7.28
2023-03-02T15:27:00.715Z,7.07
2023-03-02T15:29:35.607Z,6.93
2023-03-02T15:32:09.132Z,7.80
2023-03-02T15:34:43.072Z,6.53
2023-03-02T15:37:16.615Z,7.60
2023-03-02T15:39:55.361Z,7.32
2023-03-02T15:42:28.887Z,7.35
2023-03-02T15:45:03.854Z,7.93
2023-03-02T15:47:38.429Z,6.97
2023-03-02T15:50:13.328Z,6.05
2023-03-02T15:52:47.126Z,7.60
2023-03-02T15:55:20.700Z,8.07
2023-03-02T15:57:54.221Z,7.05
2023-03-02T16:00:29.346Z,7.65
2023-03-02T16:03:03.165Z,6.57
2023-03-02T16:05:36.805Z,7.05
2023-03-02T16:08:10.352Z,7.30
2023-03-02T16:10:44.047Z,6.53
2023-03-02T16:13:17.524Z,7.13
2023-03-02T16:15:52.435Z,7.05
2023-03-02T16:18:25.999Z,14.60
2023-03-02T16:20:59.827Z,7.13
2023-03-02T16:23:33.352Z,7.78
2023-03-02T16:26:11.764Z,6.03
2023-03-02T16:28:45.528Z,7.47
2023-03-02T16:31:21.928Z,10.75
2023-03-02T16:33:57.576Z,8.50
2023-03-02T16:36:31.202Z,13.15
2023-03-02T16:39:06.233Z,9.48
2023-03-02T16:41:43.749Z,11.77
2023-03-02T16:44:17.411Z,14.25
2023-03-02T16:46:52.603Z,7.15
2023-03-02T16:49:28.621Z,14.30
2023-03-02T16:52:02.287Z,7.53
2023-03-02T16:54:35.774Z,8.68
2023-03-02T16:57:09.606Z,14.02
2023-03-02T16:59:43.102Z,9.18
2023-03-02T17:02:17.974Z,7.32
2023-03-02T17:04:51.482Z,6.93
2023-03-02T17:07:24.986Z,7.88
2023-03-02T17:09:58.544Z,10.15
2023-03-02T17:12:32.137Z,9.15
2023-03-02T17:15:06.843Z,13.13
2023-03-02T17:17:41.995Z,8.88
2023-03-02T17:20:15.883Z,8.25
2023-03-02T17:22:49.410Z,14.65
2023-03-02T17:25:23.203Z,12.85
2023-03-02T17:27:56.804Z,28.10
2023-03-02T17:30:30.300Z,24.65
2023-03-02T17:33:05.431Z,23.75
2023-03-02T17:35:39.036Z,23.00
2023-03-02T17:38:12.536Z,24.33
2023-03-02T17:40:46.026Z,24.58
2023-03-02T17:43:19.530Z,22.88
2023-03-02T17:45:53.105Z,35.00
2023-03-02T17:48:28.052Z,33.83
2023-03-02T17:51:01.563Z,23.58
2023-03-02T17:53:35.085Z,29.52
2023-03-02T17:56:09.379Z,38.67
2023-03-02T17:58:45.303Z,40.97
2023-03-02T18:01:19.007Z,31.95
2023-03-02T18:03:54.415Z,32.90
2023-03-02T18:06:28.693Z,39.42
2023-03-02T18:09:02.200Z,39.35
2023-03-02T18:11:35.696Z,35.92
2023-03-02T18:14:09.514Z,36.22
2023-03-02T18:16:43.270Z,42.75
2023-03-02T18:19:18.140Z,46.25
2023-03-02T18:21:51.632Z,48.42
2023-03-02T18:24:25.130Z,42.58
2023-03-02T18:26:58.807Z,45.80
2023-03-02T18:29:32.731Z,47.10
2023-03-02T18:32:06.898Z,55.45
2023-03-02T18:34:42.038Z,43.33
2023-03-02T18:37:15.746Z,39.05
2023-03-02T18:39:49.182Z,38.88
2023-03-02T18:42:22.659Z,41.25
2023-03-02T18:44:56.117Z,43.65
2023-03-02T18:47:30.402Z,38.97
2023-03-02T18:50:06.581Z,40.83
2023-03-02T18:52:40.075Z,40.67
2023-03-02T18:55:14.447Z,40.22
2023-03-02T18:57:49.167Z,45.20
2023-03-02T19:00:27.608Z,46.08
2023-03-02T19:03:01.351Z,40.90
2023-03-02T19:05:36.265Z,38.60
2023-03-02T19:08:10.174Z,34.72
2023-03-02T19:10:43.805Z,35.30
2023-03-02T19:13:17.354Z,34.97
2023-03-02T19:15:51.198Z,35.45
2023-03-02T19:18:26.272Z,35.38
2023-03-02T19:21:01.752Z,33.58
2023-03-02T19:23:35.265Z,34.20
2023-03-02T19:26:09.430Z,33.42
2023-03-02T19:28:42.925Z,40.17
2023-03-02T19:31:16.766Z,35.88
2023-03-02T19:33:50.372Z,40.05
2023-03-02T19:36:25.318Z,48.25
2023-03-02T19:38:58.837Z,43.38
2023-03-02T19:41:32.423Z,42.25
2023-03-02T19:44:06.170Z,38.38
2023-03-02T19:46:39.731Z,42.28
2023-03-02T19:49:13.236Z,41.28
2023-03-02T19:51:48.261Z,35.30
2023-03-02T19:54:21.854Z,38.15
2023-03-02T19:56:55.396Z,36.45
2023-03-02T19:59:30.728Z,37.80
2023-03-02T20:02:04.440Z,40.63
2023-03-02T20:04:38.004Z,35.70
2023-03-02T20:07:12.914Z,32.33
2023-03-02T20:09:46.817Z,30.67
2023-03-02T20:12:21.552Z,31.98
2023-03-02T20:14:56.881Z,31.65
2023-03-02T20:17:30.925Z,30.98
2023-03-02T20:20:05.694Z,34.58
2023-03-02T20:22:40.729Z,36.40
2023-03-02T20:25:14.799Z,36.10
2023-03-02T20:27:51.768Z,35.35
2023-03-02T20:30:30.884Z,38.10
2023-03-02T20:33:07.094Z,34.47
2023-03-02T20:35:42.607Z,35.72
2023-03-02T20:38:20.979Z,35.55
2023-03-02T20:40:54.510Z,34.70
2023-03-02T20:43:28.310Z,32.72
2023-03-02T20:46:02.064Z,30.15
2023-03-02T20:48:35.961Z,29.92
2023-03-02T20:51:09.433Z,36.78
2023-03-02T20:53:46.960Z,35.78
2023-03-02T20:56:21.257Z,34.65
2023-03-02T20:58:54.995Z,37.03
2023-03-02T21:01:29.832Z,37.70
2023-03-02T21:04:03.318Z,49.55
2023-03-02T21:06:36.843Z,52.05
2023-03-02T21:09:12.165Z,48.13
2023-03-02T21:11:45.810Z,38.67
2023-03-02T21:14:19.331Z,44.78
2023-03-02T21:16:53.093Z,46.38
2023-03-02T21:19:29.125Z,44.92
2023-03-02T21:22:02.937Z,44.30
2023-03-02T21:24:37.799Z,41.25
2023-03-02T21:27:11.348Z,51.80
2023-03-02T21:29:45.266Z,50.42
2023-03-02T21:32:18.764Z,53.10
2023-03-02T21:34:52.194Z,47.45
2023-03-02T21:37:25.920Z,41.25
2023-03-02T21:40:01.827Z,42.22
2023-03-02T21:42:35.999Z,44.97
2023-03-02T21:45:11.231Z,48.45
2023-03-02T21:47:44.830Z,53.67
2023-03-02T21:50:20.938Z,53.05
2023-03-02T21:52:54.740Z,52.70
2023-03-02T21:55:30.793Z,43.63
2023-03-02T21:58:06.244Z,42.47
2023-03-02T22:00:42.022Z,42.88
2023-03-02T22:03:16.026Z,45.85
2023-03-02T22:05:49.736Z,41.40
2023-03-02T22:08:23.419Z,45.40
2023-03-02T22:10:58.321Z,40.50
2023-03-02T22:13:33.617Z,37.83
2023-03-02T22:16:14.485Z,35.80
2023-03-02T22:18:50.176Z,34.95
2023-03-02T22:21:31.966Z,33.05
2023-03-02T22:24:19.047Z,39.38
2023-03-02T22:26:59.676Z,40.88
2023-03-02T22:29:36.815Z,51.85
2023-03-02T22:32:18.275Z,46.03
2023-03-02T22:34:53.793Z,38.83
2023-03-02T22:37:29.697Z,39.60
2023-03-02T22:40:09.239Z,43.47
2023-03-02T22:42:44.115Z,42.15
2023-03-02T22:45:23.114Z,44.75
2023-03-02T22:47:56.810Z,41.75
2023-03-02T22:50:31.651Z,44.10
2023-03-02T22:53:14.724Z,46.05
2023-03-02T22:55:49.066Z,45.05
2023-03-02T22:58:30.936Z,44.38
2023-03-02T23:01:07.544Z,40.55
2023-03-02T23:03:43.987Z,36.67
2023-03-02T23:06:29.485Z,37.65
2023-03-02T23:09:05.156Z,37.75
2023-03-02T23:11:41.828Z,34.70
2023-03-02T23:14:28.699Z,37.33
2023-03-02T23:17:06.769Z,43.45
2023-03-02T23:19:40.222Z,49.10
2023-03-02T23:22:13.705Z,48.78
2023-03-02T23:24:47.219Z,49.95
2023-03-02T23:27:20.747Z,43.88
2023-03-02T23:29:55.742Z,46.55
2023-03-02T23:32:29.232Z,48.42
2023-03-02T23:35:02.717Z,42.92
2023-03-02T23:37:36.142Z,41.88
2023-03-02T23:40:11.672Z,44.40
2023-03-02T23:42:45.103Z,45.78
2023-03-02T23:45:19.970Z,43.97
2023-03-02T23:47:53.451Z,44.20
2023-03-02T23:50:26.917Z,39.40
2023-03-02T23:53:00.384Z,39.33
2023-03-02T23:55:34.345Z,40.25
2023-03-02T23:58:07.870Z,45.85
